Malton, United Kingdom
Current Conditions -  °F | °C
As of 1:50 AM on Thursday 23 Oct 2014 (Local Time) from EGXU Reporting Station
Overcast Overcast  
Wind Chill: 11°   Ceiling: 19000
Heat Index: 11°   Visibility: 6mi
Dew Point:   Wind: 7mph
Humidity: 82%   Direction: 210°SSW
Pressure: 30"   Gusts: NA
Location:  54.13°N, 0.8°W
Report Text: EGXU 230050Z AUTO 21006KT 9999 // FEW034/// OVC190/// 11/08 Q1016
Loading
Personal Weather Stations






























Interactive Weather Map
Tropical Storm Tracking
New forecast layout! Learn more

10-Day Weather Forecast

Advertisements
Track Severe Weather on mobile